createdAt,value
2022-08-17T00:00:43.547Z,100092.38
2022-08-17T00:03:10.546Z,100096.53
2022-08-17T00:05:41.659Z,100088.06
2022-08-17T00:08:10.524Z,100078.97
2022-08-17T00:10:39.671Z,100079.19
2022-08-17T00:13:12.017Z,100080.19
2022-08-17T00:15:39.984Z,100076.34
2022-08-17T00:19:01.090Z,100075.28
2022-08-17T00:20:58.464Z,100075.00
2022-08-17T00:23:27.682Z,100074.00
2022-08-17T00:25:56.056Z,100070.41
2022-08-17T00:28:23.827Z,100072.59
2022-08-17T00:30:53.806Z,100077.19
2022-08-17T00:33:26.225Z,100070.41
2022-08-17T00:35:54.913Z,100077.47
2022-08-17T00:38:23.250Z,100068.47
2022-08-17T00:40:55.975Z,100061.19
2022-08-17T00:43:32.522Z,100062.31
2022-08-17T00:46:03.442Z,100053.84
2022-08-17T00:48:36.272Z,100053.09
2022-08-17T00:51:08.496Z,100058.50
2022-08-17T00:53:40.219Z,100058.50
2022-08-17T00:56:13.981Z,100059.56
2022-08-17T00:58:42.392Z,100048.72
2022-08-17T01:01:11.315Z,100060.72
2022-08-17T01:03:41.276Z,100063.75
2022-08-17T01:06:11.592Z,100056.44
2022-08-17T01:08:40.652Z,100053.69
2022-08-17T01:11:09.250Z,100060.16
2022-08-17T01:13:41.283Z,100062.94
2022-08-17T01:16:18.988Z,100059.69
2022-08-17T01:18:49.781Z,100062.03
2022-08-17T01:21:24.274Z,100056.34
2022-08-17T01:23:54.537Z,100057.47
2022-08-17T01:26:23.193Z,100051.03
2022-08-17T01:28:54.397Z,100055.31
2022-08-17T01:31:25.854Z,100050.69
2022-08-17T01:33:53.913Z,100054.50
2022-08-17T01:36:22.020Z,100054.22
2022-08-17T01:38:49.921Z,100056.38
2022-08-17T01:41:20.443Z,100050.91
2022-08-17T01:43:51.133Z,100053.13
2022-08-17T01:46:23.139Z,100052.59
2022-08-17T01:48:51.627Z,100045.59
2022-08-17T01:51:21.137Z,100051.00
2022-08-17T01:53:52.122Z,100049.16
2022-08-17T01:56:23.099Z,100049.69
2022-08-17T01:58:51.828Z,100063.00
2022-08-17T02:01:21.491Z,100057.31
2022-08-17T02:03:54.532Z,100056.00
2022-08-17T02:06:31.365Z,100056.56
2022-08-17T02:09:02.708Z,100046.78
2022-08-17T02:11:34.869Z,100047.88
2022-08-17T02:14:04.093Z,100044.13
2022-08-17T02:16:37.906Z,100042.47
2022-08-17T02:20:10.300Z,100039.25
2022-08-17T02:22:40.010Z,100043.03
2022-08-17T02:25:10.451Z,100044.13
2022-08-17T02:27:41.821Z,100045.75
2022-08-17T02:30:59.148Z,100038.16
2022-08-17T02:33:04.026Z,100046.81
2022-08-17T02:35:34.063Z,100039.53
2022-08-17T02:38:02.107Z,100040.56
2022-08-17T02:40:36.123Z,100040.84
2022-08-17T02:43:06.190Z,100043.56
2022-08-17T02:45:34.294Z,100032.22
2022-08-17T02:48:02.182Z,100033.00
2022-08-17T02:50:31.197Z,100035.44
2022-08-17T02:53:02.286Z,100037.56
2022-08-17T02:55:33.695Z,100047.91
2022-08-17T02:58:01.793Z,100039.75
2022-08-17T03:00:35.165Z,100038.16
2022-08-17T03:03:05.833Z,100032.72
2022-08-17T03:05:36.378Z,100032.16
2022-08-17T03:08:07.412Z,100035.44
2022-08-17T03:10:40.883Z,100030.25
2022-08-17T03:13:09.366Z,100030.25
2022-08-17T03:15:40.625Z,100041.28
2022-08-17T03:18:09.340Z,100036.72
2022-08-17T03:20:47.372Z,100038.03
2022-08-17T03:23:15.893Z,100034.31
2022-08-17T03:25:46.429Z,100028.78
2022-08-17T03:28:14.275Z,100028.81
2022-08-17T03:31:46.341Z,100027.81
2022-08-17T03:34:16.393Z,100041.81
2022-08-17T03:36:45.018Z,100030.28
2022-08-17T03:39:13.135Z,100038.53
2022-08-17T03:41:41.011Z,100030.19
2022-08-17T03:44:08.723Z,100038.03
2022-08-17T03:46:54.462Z,100038.75
2022-08-17T03:49:41.457Z,100032.06
2022-08-17T03:52:26.580Z,100033.69
2022-08-17T03:55:12.140Z,100034.19
2022-08-17T03:57:40.736Z,100039.59
2022-08-17T04:00:09.303Z,100029.88
2022-08-17T04:02:38.217Z,100035.31
2022-08-17T04:05:08.030Z,100038.44
2022-08-17T04:07:36.041Z,100043.00
2022-08-17T04:10:05.317Z,100046.22
2022-08-17T04:12:45.245Z,100050.63
2022-08-17T04:15:14.039Z,100044.91
2022-08-17T04:17:44.250Z,100042.69
2022-08-17T04:20:15.121Z,100040.59
2022-08-17T04:22:57.291Z,100043.13
2022-08-17T04:25:25.529Z,100032.06
2022-08-17T04:27:53.179Z,100038.09
2022-08-17T04:30:22.732Z,100044.50
2022-08-17T04:33:10.544Z,100038.06
2022-08-17T04:35:41.707Z,100045.13
2022-08-17T04:38:11.071Z,100054.88
2022-08-17T04:40:57.428Z,100058.94
2022-08-17T04:43:27.249Z,100053.78
2022-08-17T04:45:57.818Z,100059.78
2022-08-17T04:48:35.237Z,100069.50
2022-08-17T04:51:10.298Z,100061.16
2022-08-17T04:53:39.037Z,100070.66
2022-08-17T04:56:11.830Z,100062.53
2022-08-17T04:58:44.809Z,100070.38
2022-08-17T05:01:12.921Z,100078.78
2022-08-17T05:03:42.107Z,100066.06
2022-08-17T05:06:14.722Z,100079.59
2022-08-17T05:08:42.633Z,100079.03
2022-08-17T05:11:12.107Z,100076.63
2022-08-17T05:13:39.743Z,100078.28
2022-08-17T05:16:08.966Z,100080.69
2022-08-17T05:18:38.922Z,100087.75
2022-08-17T05:21:08.424Z,100087.97
2022-08-17T05:23:42.874Z,100090.66
2022-08-17T05:26:25.831Z,100097.19
2022-08-17T05:28:59.634Z,100090.06
2022-08-17T05:31:29.377Z,100099.28
2022-08-17T05:33:57.886Z,100091.63
2022-08-17T05:36:42.368Z,100087.72
2022-08-17T05:39:16.898Z,100090.69
2022-08-17T05:41:47.963Z,100083.44
2022-08-17T05:44:16.070Z,100085.22
2022-08-17T05:46:48.618Z,100093.16
2022-08-17T05:49:19.063Z,100096.56
2022-08-17T05:52:02.660Z,100093.81
2022-08-17T05:54:39.931Z,100100.28
2022-08-17T05:57:18.066Z,100091.81
2022-08-17T05:59:54.312Z,100089.97
2022-08-17T06:02:26.538Z,100090.78
2022-08-17T06:05:12.222Z,100083.63
2022-08-17T06:07:48.026Z,100081.75
2022-08-17T06:10:21.737Z,100082.66
2022-08-17T06:12:57.737Z,100082.31
2022-08-17T06:15:31.918Z,100079.28
2022-08-17T06:18:02.173Z,100079.19
2022-08-17T06:20:37.373Z,100069.03
2022-08-17T06:23:08.127Z,100068.81
2022-08-17T06:25:41.935Z,100068.16
2022-08-17T06:28:14.205Z,100066.59
2022-08-17T06:30:59.560Z,100061.25
2022-08-17T06:33:34.551Z,100064.59
2022-08-17T06:36:14.592Z,100077.28
2022-08-17T06:38:50.873Z,100069.47
2022-08-17T06:42:54.861Z,100066.19
2022-08-17T06:45:15.890Z,100068.91
2022-08-17T06:47:47.403Z,100073.78
2022-08-17T06:50:20.829Z,100069.34
2022-08-17T06:52:53.957Z,100071.16
2022-08-17T06:55:27.469Z,100072.06
2022-08-17T06:57:59.088Z,100075.44
2022-08-17T07:00:33.493Z,100062.34
2022-08-17T07:03:06.747Z,100069.75
2022-08-17T07:05:38.732Z,100064.59
2022-08-17T07:08:11.627Z,100064.09
2022-08-17T07:10:43.042Z,100062.78
2022-08-17T07:13:29.653Z,100066.03
2022-08-17T07:16:07.761Z,100071.97
2022-08-17T07:18:35.541Z,100072.75
2022-08-17T07:21:17.565Z,100071.03
2022-08-17T07:23:57.284Z,100073.78
2022-08-17T07:26:25.769Z,100070.44
2022-08-17T07:28:56.105Z,100080.13
2022-08-17T07:31:27.299Z,100079.50
2022-08-17T07:34:05.597Z,100079.03
2022-08-17T07:36:34.811Z,100081.00
2022-08-17T07:39:05.247Z,100087.06
2022-08-17T07:41:57.490Z,100080.66
2022-08-17T07:44:24.445Z,100079.53
2022-08-17T07:47:12.528Z,100080.56
2022-08-17T07:49:41.812Z,100090.06
2022-08-17T07:52:47.873Z,100085.44
2022-08-17T07:55:00.510Z,100096.09
2022-08-17T07:57:35.434Z,100098.69
2022-08-17T08:00:17.146Z,100107.38
2022-08-17T08:03:01.617Z,100094.13
2022-08-17T08:05:49.766Z,100104.97
2022-08-17T08:08:23.986Z,100095.72
2022-08-17T08:11:00.703Z,100093.66
2022-08-17T08:13:30.409Z,100096.66
2022-08-17T08:16:14.434Z,100097.63
2022-08-17T08:18:55.517Z,100097.53
2022-08-17T08:21:34.836Z,100094.88
2022-08-17T08:24:16.753Z,100092.13
2022-08-17T08:26:49.113Z,100097.72
2022-08-17T08:29:23.281Z,100101.66
2022-08-17T08:32:04.661Z,100100.41
2022-08-17T08:35:00.538Z,100103.03
2022-08-17T08:37:42.707Z,100105.47
2022-08-17T08:40:25.107Z,100101.63
2022-08-17T08:42:59.983Z,100101.13
2022-08-17T08:45:33.461Z,100107.00
2022-08-17T08:48:12.825Z,100101.19
2022-08-17T08:51:05.834Z,100111.41
2022-08-17T08:53:41.478Z,100105.09
2022-08-17T08:56:12.739Z,100100.81
2022-08-17T08:58:50.803Z,100104.47
2022-08-17T09:01:22.814Z,100096.34
2022-08-17T09:04:23.403Z,100099.72
2022-08-17T09:07:03.837Z,100092.50
2022-08-17T09:09:53.365Z,100095.41
2022-08-17T09:12:31.619Z,100104.56
2022-08-17T09:15:08.304Z,100089.31
2022-08-17T09:17:45.119Z,100103.00
2022-08-17T09:20:28.154Z,100091.16
2022-08-17T09:23:06.527Z,100094.59
2022-08-17T09:25:45.365Z,100098.75
2022-08-17T09:28:19.261Z,100115.41
2022-08-17T09:30:49.731Z,100106.88
2022-08-17T09:33:22.857Z,100106.22
2022-08-17T09:35:55.019Z,100092.19
2022-08-17T09:38:32.641Z,100088.91
2022-08-17T09:41:04.329Z,100094.16
2022-08-17T09:43:39.238Z,100101.63
2022-08-17T09:46:12.572Z,100100.41
2022-08-17T09:48:43.673Z,100093.91
2022-08-17T09:51:16.755Z,100091.38
2022-08-17T09:53:45.903Z,100105.63
2022-08-17T09:56:25.399Z,100108.94
2022-08-17T09:59:38.598Z,100104.56
2022-08-17T10:02:21.913Z,100098.66
2022-08-17T10:04:55.557Z,100100.34
2022-08-17T10:07:30.453Z,100108.63
2022-08-17T10:10:05.259Z,100089.75
2022-08-17T10:12:38.244Z,100083.94
2022-08-17T10:15:14.991Z,100089.91
2022-08-17T10:17:56.500Z,100087.44
2022-08-17T10:20:27.750Z,100099.03
2022-08-17T10:23:19.369Z,100089.84
2022-08-17T10:26:08.703Z,100086.97
2022-08-17T10:28:40.465Z,100104.50
2022-08-17T10:31:33.673Z,100103.66
2022-08-17T10:34:08.632Z,100083.09
2022-08-17T10:36:46.140Z,100090.34
2022-08-17T10:39:22.157Z,100087.38
2022-08-17T10:41:55.692Z,100086.47
2022-08-17T10:44:38.520Z,100091.97
2022-08-17T10:47:11.835Z,100085.75
2022-08-17T10:49:48.137Z,100085.97
2022-08-17T10:52:48.507Z,100081.97
2022-08-17T10:55:19.132Z,100077.47
2022-08-17T10:57:50.383Z,100075.63
2022-08-17T11:00:58.415Z,100084.50
2022-08-17T11:03:27.040Z,100077.84
2022-08-17T11:06:02.295Z,100091.06
2022-08-17T11:09:01.567Z,100082.56
2022-08-17T11:11:43.087Z,100082.75
2022-08-17T11:14:26.251Z,100084.84
2022-08-17T11:17:07.613Z,100086.09
2022-08-17T11:19:47.238Z,100079.69
2022-08-17T11:22:45.207Z,100087.63
2022-08-17T11:25:15.935Z,100101.06
2022-08-17T11:27:45.509Z,100091.16
2022-08-17T11:30:17.421Z,100088.88
2022-08-17T11:32:54.316Z,100092.63
2022-08-17T11:35:31.472Z,100090.59
2022-08-17T11:38:16.067Z,100082.59
2022-08-17T11:41:04.227Z,100080.47
2022-08-17T11:44:02.032Z,100080.63
2022-08-17T11:46:59.187Z,100078.25
2022-08-17T11:49:55.656Z,100087.06
2022-08-17T11:52:41.704Z,100095.34
2022-08-17T11:55:52.879Z,100077.94
2022-08-17T11:58:38.595Z,100093.66
2022-08-17T12:01:07.182Z,100107.56
2022-08-17T12:03:54.451Z,100099.69
2022-08-17T12:06:42.934Z,100104.75
2022-08-17T12:09:15.843Z,100102.31
2022-08-17T12:11:56.247Z,100109.66
2022-08-17T12:15:08.135Z,100105.50
2022-08-17T12:17:40.555Z,100106.88
2022-08-17T12:20:15.230Z,100113.00
2022-08-17T12:22:50.337Z,100118.75
2022-08-17T12:25:22.653Z,100130.56
2022-08-17T12:28:04.804Z,100124.00
2022-08-17T12:30:33.882Z,100118.84
2022-08-17T12:33:02.191Z,100120.47
2022-08-17T12:35:35.354Z,100123.88
2022-08-17T12:38:06.589Z,100125.84
2022-08-17T12:40:55.612Z,100123.41
2022-08-17T12:43:31.196Z,100118.84
2022-08-17T12:46:01.161Z,100115.66
2022-08-17T12:48:59.389Z,100126.69
2022-08-17T12:51:30.325Z,100110.28
2022-08-17T12:53:58.032Z,100115.63
2022-08-17T12:56:26.171Z,100120.25
2022-08-17T12:58:56.714Z,100118.06
2022-08-17T13:01:25.129Z,100119.53
2022-08-17T13:03:57.309Z,100113.81
2022-08-17T13:06:32.341Z,100113.16
2022-08-17T13:09:10.455Z,100115.31
2022-08-17T13:11:48.747Z,100112.47
2022-08-17T13:14:18.550Z,100106.84
2022-08-17T13:16:51.618Z,100110.81
2022-08-17T13:19:39.840Z,100106.22
2022-08-17T13:22:12.445Z,100122.06
2022-08-17T13:24:53.100Z,100125.06
2022-08-17T13:27:23.331Z,100121.06
2022-08-17T13:29:57.353Z,100118.06
2022-08-17T13:32:36.127Z,100121.22
2022-08-17T13:35:42.895Z,100104.69
2022-08-17T13:38:15.901Z,100106.28
2022-08-17T13:40:51.442Z,100103.13
2022-08-17T13:43:43.885Z,100089.78
2022-08-17T13:46:17.625Z,100087.63
2022-08-17T13:48:45.471Z,100085.53
2022-08-17T13:51:26.265Z,100095.03
2022-08-17T13:54:07.085Z,100073.53
2022-08-17T13:56:39.674Z,100072.78
2022-08-17T13:59:11.264Z,100062.31
2022-08-17T14:01:41.167Z,100063.31
2022-08-17T14:04:11.186Z,100063.88
2022-08-17T14:06:51.943Z,100059.28
2022-08-17T14:09:26.641Z,100039.66
2022-08-17T14:11:55.613Z,100041.94
2022-08-17T14:14:24.096Z,100043.03
2022-08-17T14:16:51.949Z,100058.41
2022-08-17T14:19:21.802Z,100052.59
2022-08-17T14:21:49.873Z,100068.50
2022-08-17T14:24:24.266Z,100062.94
2022-08-17T14:26:53.149Z,100052.56
2022-08-17T14:29:21.204Z,100060.63
2022-08-17T14:31:53.226Z,100067.97
2022-08-17T14:34:22.605Z,100049.00
2022-08-17T14:36:51.057Z,100062.31
2022-08-17T14:39:20.103Z,100045.78
2022-08-17T14:41:49.966Z,100058.13
2022-08-17T14:44:17.785Z,100057.56
2022-08-17T14:46:46.153Z,100054.16
2022-08-17T14:49:15.601Z,100050.16
2022-08-17T14:51:43.912Z,100048.56
2022-08-17T14:54:33.632Z,100045.13
2022-08-17T14:57:23.383Z,100036.72
2022-08-17T14:59:54.797Z,100040.19
2022-08-17T15:02:30.142Z,100031.44
2022-08-17T15:06:02.942Z,100032.53
2022-08-17T15:08:31.713Z,100038.50
2022-08-17T15:10:59.523Z,100040.19
2022-08-17T15:13:28.620Z,100036.16
2022-08-17T15:15:56.691Z,100040.22
2022-08-17T15:18:24.923Z,100039.56
2022-08-17T15:20:52.912Z,100037.09
2022-08-17T15:23:23.884Z,100035.03
2022-08-17T15:25:53.633Z,100033.84
2022-08-17T15:28:22.717Z,100053.19
2022-08-17T15:30:52.597Z,100049.38
2022-08-17T15:33:29.322Z,100051.63
2022-08-17T15:35:59.628Z,100061.22
2022-08-17T15:38:28.186Z,100050.84
2022-08-17T15:40:57.630Z,100056.34
2022-08-17T15:43:28.210Z,100057.34
2022-08-17T15:46:01.067Z,100050.56
2022-08-17T15:48:40.850Z,100045.38
2022-08-17T15:51:13.826Z,100054.69
2022-08-17T15:53:43.220Z,100059.00
2022-08-17T15:56:11.578Z,100054.31
2022-08-17T15:58:40.045Z,100050.03
2022-08-17T16:01:15.128Z,100052.31
2022-08-17T16:04:04.096Z,100051.38
2022-08-17T16:06:34.653Z,100041.34
2022-08-17T16:09:02.496Z,100055.81
2022-08-17T16:11:31.318Z,100051.75
2022-08-17T16:13:59.138Z,100037.44
2022-08-17T16:16:31.453Z,100039.31
2022-08-17T16:18:59.458Z,100028.03
2022-08-17T16:21:29.663Z,100041.31
2022-08-17T16:24:02.249Z,100046.72
2022-08-17T16:26:31.372Z,100041.31
2022-08-17T16:29:00.969Z,100066.13
2022-08-17T16:31:30.221Z,100063.13
2022-08-17T16:34:17.745Z,100057.09
2022-08-17T16:36:53.608Z,100052.88
2022-08-17T16:39:24.864Z,100038.22
2022-08-17T16:41:52.664Z,100053.44
2022-08-17T16:44:21.771Z,100054.03
2022-08-17T16:46:51.389Z,100058.00
2022-08-17T16:49:35.333Z,100059.25
2022-08-17T16:52:10.362Z,100069.25
2022-08-17T16:54:40.518Z,100069.88
2022-08-17T16:57:08.241Z,100078.56
2022-08-17T16:59:40.935Z,100064.91
2022-08-17T17:02:15.526Z,100065.94
2022-08-17T17:04:48.639Z,100069.75
2022-08-17T17:07:34.739Z,100078.56
2022-08-17T17:10:06.165Z,100077.94
2022-08-17T17:13:00.923Z,100078.78
2022-08-17T17:15:22.475Z,100101.06
2022-08-17T17:17:53.558Z,100092.84
2022-08-17T17:20:25.961Z,100084.59
2022-08-17T17:23:05.637Z,100087.66
2022-08-17T17:25:37.292Z,100103.03
2022-08-17T17:28:10.035Z,100100.25
2022-08-17T17:30:50.570Z,100096.50
2022-08-17T17:33:22.559Z,100095.41
2022-08-17T17:35:52.659Z,100103.84
2022-08-17T17:38:23.278Z,100107.56
2022-08-17T17:41:02.352Z,100103.84
2022-08-17T17:43:39.752Z,100093.03
2022-08-17T17:46:27.522Z,100099.44
2022-08-17T17:48:59.289Z,100110.25
2022-08-17T17:52:06.548Z,100115.31
2022-08-17T17:54:32.517Z,100123.13
2022-08-17T17:57:04.490Z,100124.75
2022-08-17T17:59:43.761Z,100130.78
2022-08-17T18:02:37.273Z,100136.69
2022-08-17T18:05:11.982Z,100144.31
2022-08-17T18:07:46.460Z,100138.97
2022-08-17T18:10:29.297Z,100147.25
2022-08-17T18:13:03.735Z,100145.63
2022-08-17T18:15:36.063Z,100148.91
2022-08-17T18:18:37.982Z,100156.91
2022-08-17T18:21:16.895Z,100157.47
2022-08-17T18:23:49.587Z,100156.31
2022-08-17T18:26:37.467Z,100155.91
2022-08-17T18:29:15.240Z,100167.06
2022-08-17T18:31:42.903Z,100168.00
2022-08-17T18:34:43.786Z,100170.97
2022-08-17T18:37:16.025Z,100168.53
2022-08-17T18:39:47.219Z,100170.41
2022-08-17T18:42:25.697Z,100175.06
2022-08-17T18:44:55.597Z,100173.03
2022-08-17T18:47:25.873Z,100162.69
2022-08-17T18:49:57.976Z,100161.59
2022-08-17T18:52:29.028Z,100162.41
2022-08-17T18:55:08.473Z,100168.59
2022-08-17T18:57:38.313Z,100169.63
2022-08-17T19:00:13.132Z,100173.88
2022-08-17T19:02:51.473Z,100169.03
2022-08-17T19:05:32.704Z,100168.84
2022-08-17T19:10:59.154Z,100177.38
2022-08-17T19:13:32.312Z,100177.16
2022-08-17T19:16:10.132Z,100177.16
2022-08-17T19:18:45.262Z,100173.53
2022-08-17T19:21:16.312Z,100174.97
2022-08-17T19:23:53.943Z,100179.22
2022-08-17T19:26:54.799Z,100188.53
2022-08-17T19:29:19.618Z,100182.97
2022-08-17T19:31:50.117Z,100195.84
2022-08-17T19:34:33.128Z,100198.56
2022-08-17T19:37:06.752Z,100186.50
2022-08-17T19:39:40.162Z,100191.75
2022-08-17T19:42:13.576Z,100186.00
2022-08-17T19:44:49.724Z,100194.78
2022-08-17T19:47:50.946Z,100196.38
2022-08-17T19:50:18.920Z,100199.81
2022-08-17T19:52:52.875Z,100205.97
2022-08-17T19:55:31.428Z,100204.63
2022-08-17T19:58:17.794Z,100202.78
2022-08-17T20:00:50.340Z,100206.53
2022-08-17T20:03:23.116Z,100193.78
2022-08-17T20:08:46.201Z,100195.84
2022-08-17T20:11:18.390Z,100195.44
2022-08-17T20:13:50.993Z,100196.91
2022-08-17T20:16:19.596Z,100204.81
2022-08-17T20:18:53.356Z,100201.44
2022-08-17T20:21:25.797Z,100204.59
2022-08-17T20:23:56.060Z,100210.84
2022-08-17T20:26:27.500Z,100213.50
2022-08-17T20:29:37.715Z,100210.50
2022-08-17T20:32:16.328Z,100208.22
2022-08-17T20:34:46.798Z,100210.94
2022-08-17T20:37:27.877Z,100224.63
2022-08-17T20:40:21.755Z,100228.25
2022-08-17T20:42:49.645Z,100228.00
2022-08-17T20:46:02.082Z,100232.53
2022-08-17T20:48:39.148Z,100234.50
2022-08-17T20:51:20.290Z,100234.94
2022-08-17T20:54:06.855Z,100238.81
2022-08-17T20:56:48.956Z,100241.00
2022-08-17T20:59:50.144Z,100244.63
2022-08-17T21:02:21.694Z,100241.91
2022-08-17T21:05:06.966Z,100247.81
2022-08-17T21:07:52.923Z,100238.63
2022-08-17T21:10:31.930Z,100240.00
2022-08-17T21:13:05.904Z,100242.31
2022-08-17T21:15:40.395Z,100243.56
2022-08-17T21:18:13.926Z,100248.53
2022-08-17T21:21:01.456Z,100248.84
2022-08-17T21:23:45.519Z,100249.13
2022-08-17T21:26:28.113Z,100253.91
2022-08-17T21:29:29.953Z,100253.19
2022-08-17T21:32:19.066Z,100256.94
2022-08-17T21:35:18.575Z,100266.53
2022-08-17T21:37:49.119Z,100269.53
2022-08-17T21:40:25.422Z,100270.47
2022-08-17T21:42:55.681Z,100266.09
2022-08-17T21:45:27.357Z,100252.50
2022-08-17T21:48:09.516Z,100259.84
2022-08-17T21:50:37.836Z,100255.25
2022-08-17T21:53:09.078Z,100259.66
2022-08-17T21:55:37.571Z,100250.97
2022-08-17T21:58:14.569Z,100249.97
2022-08-17T22:00:44.127Z,100256.53
2022-08-17T22:03:24.720Z,100257.38
2022-08-17T22:05:52.701Z,100256.28
2022-08-17T22:08:24.140Z,100256.84
2022-08-17T22:10:57.821Z,100270.75
2022-08-17T22:13:29.445Z,100275.69
2022-08-17T22:16:15.441Z,100267.56
2022-08-17T22:18:58.267Z,100268.66
2022-08-17T22:21:26.426Z,100273.31
2022-08-17T22:24:07.125Z,100264.41
2022-08-17T22:26:59.851Z,100269.78
2022-08-17T22:29:53.128Z,100264.31
2022-08-17T22:32:34.978Z,100272.25
2022-08-17T22:35:28.431Z,100270.38
2022-08-17T22:37:56.328Z,100275.31
2022-08-17T22:40:31.521Z,100276.13
2022-08-17T22:43:00.574Z,100277.53
2022-08-17T22:45:29.728Z,100284.06
2022-08-17T22:47:58.644Z,100281.31
2022-08-17T22:50:29.361Z,100273.78
2022-08-17T22:53:16.787Z,100278.13
2022-08-17T22:56:10.539Z,100263.97
2022-08-17T22:59:01.430Z,100267.75
2022-08-17T23:01:32.592Z,100260.19
2022-08-17T23:04:02.416Z,100265.69
2022-08-17T23:06:32.416Z,100261.31
2022-08-17T23:09:03.825Z,100265.16
2022-08-17T23:11:50.066Z,100262.94
2022-08-17T23:14:19.816Z,100261.31
2022-08-17T23:16:47.788Z,100260.03
2022-08-17T23:19:17.393Z,100258.38
2022-08-17T23:21:46.163Z,100259.53
2022-08-17T23:24:16.584Z,100252.78
2022-08-17T23:26:46.647Z,100261.38
2022-08-17T23:29:14.240Z,100259.28
2022-08-17T23:31:43.157Z,100265.81
2022-08-17T23:34:14.576Z,100270.19
2022-08-17T23:36:52.958Z,100254.97
2022-08-17T23:39:24.314Z,100260.66
2022-08-17T23:41:54.037Z,100257.69
2022-08-17T23:44:23.627Z,100261.25
2022-08-17T23:46:52.123Z,100270.16
2022-08-17T23:49:20.188Z,100269.91
2022-08-17T23:51:49.201Z,100274.78
2022-08-17T23:54:21.775Z,100282.09
2022-08-17T23:56:49.551Z,100278.03
2022-08-17T23:59:21.062Z,100275.31
